createdAt,value
2022-10-07T00:02:39.339Z,2.37
2022-10-07T00:07:39.285Z,2.63
2022-10-07T00:12:41.231Z,2.38
2022-10-07T00:17:41.717Z,2.65
2022-10-07T00:22:42.527Z,2.60
2022-10-07T00:27:43.707Z,2.40
2022-10-07T00:32:43.057Z,2.42
2022-10-07T00:37:47.851Z,2.05
2022-10-07T00:42:46.654Z,2.33
2022-10-07T00:47:49.282Z,2.15
2022-10-07T00:52:55.368Z,2.65
2022-10-07T00:57:57.361Z,2.47
2022-10-07T01:02:58.124Z,2.92
2022-10-07T01:08:01.457Z,2.85
2022-10-07T01:13:38.747Z,2.50
2022-10-07T01:19:32.609Z,2.60
2022-10-07T01:24:51.992Z,2.60
2022-10-07T01:29:57.647Z,2.50
2022-10-07T01:34:56.405Z,2.80
2022-10-07T01:39:58.640Z,3.08
2022-10-07T01:45:01.217Z,3.17
2022-10-07T01:49:59.666Z,3.35
2022-10-07T01:55:06.070Z,2.92
2022-10-07T02:00:11.423Z,2.67
2022-10-07T02:05:35.301Z,2.70
2022-10-07T02:10:39.314Z,2.97
2022-10-07T02:15:55.788Z,2.45
2022-10-07T02:20:55.287Z,2.75
2022-10-07T02:25:55.082Z,2.70
2022-10-07T02:30:56.409Z,2.78
2022-10-07T02:35:58.216Z,2.85
2022-10-07T02:41:13.941Z,2.60
2022-10-07T02:46:30.949Z,2.85
2022-10-07T02:51:37.822Z,2.88
2022-10-07T02:56:41.698Z,2.88
2022-10-07T03:01:47.668Z,3.33
2022-10-07T03:06:49.992Z,3.72
2022-10-07T03:11:52.434Z,4.40
2022-10-07T03:16:52.874Z,4.05
2022-10-07T03:21:52.355Z,4.18
2022-10-07T03:26:54.357Z,4.28
2022-10-07T03:31:57.730Z,3.67
2022-10-07T03:36:55.548Z,3.30
2022-10-07T03:42:01.061Z,3.25
2022-10-07T03:47:08.692Z,3.70
2022-10-07T03:52:10.235Z,4.18
2022-10-07T03:57:29.858Z,3.30
2022-10-07T04:02:32.764Z,3.65
2022-10-07T04:07:33.726Z,3.70
2022-10-07T04:12:35.548Z,3.42
2022-10-07T04:17:36.222Z,3.25
2022-10-07T04:22:36.888Z,4.40
2022-10-07T04:27:51.049Z,4.25
2022-10-07T04:32:56.657Z,4.50
2022-10-07T04:37:58.098Z,4.45
2022-10-07T04:43:20.184Z,5.00
2022-10-07T04:48:27.380Z,9.20
2022-10-07T04:53:28.135Z,4.93
2022-10-07T04:58:29.884Z,5.30
2022-10-07T05:03:36.216Z,4.20
2022-10-07T05:08:34.862Z,8.43
2022-10-07T05:13:34.416Z,7.93
2022-10-07T05:18:34.567Z,7.13
2022-10-07T05:23:38.442Z,6.35
2022-10-07T05:28:47.557Z,4.85
2022-10-07T05:33:50.169Z,4.70
2022-10-07T05:38:59.731Z,4.47
2022-10-07T05:44:10.527Z,4.55
2022-10-07T05:49:12.881Z,4.38
2022-10-07T05:54:14.058Z,5.18
2022-10-07T05:59:15.717Z,4.50
2022-10-07T06:04:16.961Z,4.80
2022-10-07T06:09:37.906Z,5.75
2022-10-07T06:14:44.539Z,7.45
2022-10-07T06:19:46.492Z,12.10
2022-10-07T06:24:47.037Z,7.85
2022-10-07T06:29:47.457Z,9.65
2022-10-07T06:34:47.205Z,7.45
2022-10-07T06:39:46.321Z,7.80
2022-10-07T06:44:48.339Z,7.55
2022-10-07T06:49:50.201Z,7.82
2022-10-07T06:54:52.127Z,7.40
2022-10-07T06:59:55.518Z,9.02
2022-10-07T07:04:57.560Z,15.55
2022-10-07T07:09:57.475Z,7.00
2022-10-07T07:14:56.985Z,8.10
2022-10-07T07:19:55.661Z,7.88
2022-10-07T07:24:55.600Z,8.68
2022-10-07T07:29:59.047Z,8.85
2022-10-07T07:35:00.732Z,7.30
2022-10-07T07:40:00.909Z,7.60
2022-10-07T07:45:01.599Z,7.43
2022-10-07T07:50:01.574Z,7.00
2022-10-07T07:55:03.311Z,8.85
2022-10-07T08:00:02.219Z,8.27
2022-10-07T08:05:04.511Z,6.53
2022-10-07T08:10:04.748Z,5.60
2022-10-07T08:15:05.371Z,5.65
2022-10-07T08:20:12.980Z,5.55
2022-10-07T08:25:14.057Z,5.15
2022-10-07T08:30:15.689Z,5.40
2022-10-07T08:35:20.924Z,4.85
2022-10-07T08:40:19.060Z,4.90
2022-10-07T08:45:35.448Z,5.20
2022-10-07T08:51:24.708Z,5.25
2022-10-07T08:56:24.062Z,5.13
2022-10-07T09:01:48.863Z,4.90
2022-10-07T09:06:55.422Z,5.22
2022-10-07T09:11:54.923Z,5.90
2022-10-07T09:17:07.126Z,5.22
2022-10-07T09:22:36.283Z,5.20
2022-10-07T09:27:34.004Z,7.63
2022-10-07T09:32:46.308Z,5.50
2022-10-07T09:38:11.579Z,6.32
2022-10-07T09:43:14.155Z,6.65
2022-10-07T09:48:19.431Z,6.97
2022-10-07T09:53:24.269Z,6.72
2022-10-07T09:58:26.499Z,5.88
2022-10-07T10:03:35.597Z,4.90
2022-10-07T10:08:37.489Z,5.22
2022-10-07T10:13:40.711Z,4.90
2022-10-07T10:19:04.869Z,4.40
2022-10-07T10:24:06.812Z,5.65
2022-10-07T10:29:30.015Z,5.20
2022-10-07T10:34:41.899Z,4.73
2022-10-07T10:39:42.820Z,5.45
2022-10-07T10:45:08.255Z,5.75
2022-10-07T10:50:18.823Z,3.55
2022-10-07T10:55:35.342Z,5.80
2022-10-07T11:01:24.514Z,3.53
2022-10-07T11:06:26.820Z,3.17
2022-10-07T11:11:28.621Z,2.90
2022-10-07T11:16:33.442Z,3.22
2022-10-07T11:21:53.879Z,2.90
2022-10-07T11:27:20.793Z,2.90
2022-10-07T11:32:29.638Z,2.58
2022-10-07T11:37:44.190Z,2.97
2022-10-07T11:42:44.724Z,2.30
2022-10-07T11:48:02.542Z,2.30
2022-10-07T11:53:22.796Z,2.90
2022-10-07T11:58:40.249Z,2.90
2022-10-07T12:03:38.156Z,3.08
2022-10-07T12:08:44.844Z,3.47
2022-10-07T12:13:45.555Z,3.10
2022-10-07T12:19:08.033Z,4.00
2022-10-07T12:24:15.819Z,4.10
2022-10-07T12:29:37.835Z,4.47
2022-10-07T12:34:44.300Z,4.25
2022-10-07T12:39:42.902Z,7.53
2022-10-07T12:44:47.399Z,6.60
2022-10-07T12:50:00.637Z,4.28
2022-10-07T13:00:11.552Z,2.10
2022-10-07T13:05:25.496Z,2.50
2022-10-07T13:10:58.408Z,3.55
2022-10-07T13:16:05.589Z,2.38
2022-10-07T13:21:13.291Z,3.05
2022-10-07T13:26:12.331Z,3.72
2022-10-07T13:31:21.466Z,2.70
2022-10-07T13:36:28.154Z,2.70
2022-10-07T13:41:32.585Z,2.63
2022-10-07T13:46:33.814Z,2.92
2022-10-07T13:51:43.933Z,2.83
2022-10-07T13:56:42.707Z,2.72
2022-10-07T14:01:40.529Z,2.60
2022-10-07T14:06:59.185Z,3.00
2022-10-07T14:12:00.972Z,2.42
2022-10-07T14:16:59.799Z,2.95
2022-10-07T14:22:01.747Z,2.97
2022-10-07T14:27:02.779Z,3.40
2022-10-07T14:32:40.419Z,3.40
2022-10-07T14:37:41.539Z,2.75
2022-10-07T14:42:40.820Z,3.22
2022-10-07T14:47:39.174Z,3.22
2022-10-07T14:53:56.397Z,3.78
2022-10-07T14:58:57.897Z,4.07
2022-10-07T15:04:00.200Z,3.78
2022-10-07T15:08:59.658Z,3.72
2022-10-07T15:14:01.934Z,3.88
2022-10-07T15:19:10.735Z,3.90
2022-10-07T15:24:13.186Z,4.05
2022-10-07T15:29:13.483Z,4.50
2022-10-07T15:34:14.682Z,4.03
2022-10-07T15:39:15.962Z,4.25
2022-10-07T15:44:18.393Z,4.25
2022-10-07T15:49:19.677Z,4.63
2022-10-07T15:54:21.451Z,4.55
2022-10-07T15:59:21.022Z,4.88
2022-10-07T16:04:20.512Z,4.90
2022-10-07T16:09:22.331Z,4.47
2022-10-07T16:14:22.586Z,4.47
2022-10-07T16:19:22.268Z,4.88
2022-10-07T16:24:24.765Z,4.40
2022-10-07T16:29:46.872Z,4.93
2022-10-07T16:34:47.594Z,4.40
2022-10-07T16:39:45.126Z,4.53
2022-10-07T16:50:10.936Z,8.10
2022-10-07T16:55:09.396Z,9.68
2022-10-07T17:00:08.350Z,7.30
2022-10-07T17:05:06.261Z,8.73
2022-10-07T17:10:04.582Z,7.57
2022-10-07T17:15:03.314Z,7.43
2022-10-07T17:20:02.989Z,9.27
2022-10-07T17:25:03.365Z,10.23
2022-10-07T17:30:01.215Z,9.25
2022-10-07T17:35:00.055Z,8.43
2022-10-07T17:39:59.355Z,7.05
2022-10-07T17:44:58.316Z,7.65
2022-10-07T17:49:56.962Z,8.30
2022-10-07T17:54:57.558Z,7.97
2022-10-07T18:00:05.563Z,6.97
2022-10-07T18:10:18.846Z,6.45
2022-10-07T18:15:20.415Z,7.65
2022-10-07T18:20:24.152Z,7.60
2022-10-07T18:25:22.641Z,8.80
2022-10-07T18:30:22.420Z,8.32
2022-10-07T18:35:22.794Z,9.02
2022-10-07T18:40:25.467Z,8.55
2022-10-07T18:45:23.714Z,9.35
2022-10-07T18:50:22.906Z,8.88
2022-10-07T18:55:24.026Z,10.88
2022-10-07T19:00:22.641Z,10.10
2022-10-07T19:05:21.038Z,10.57
2022-10-07T19:10:19.626Z,14.52
2022-10-07T19:15:20.868Z,19.30
2022-10-07T19:20:21.846Z,12.45
2022-10-07T19:25:43.390Z,13.60
2022-10-07T19:30:45.368Z,12.02
2022-10-07T19:35:47.485Z,12.60
2022-10-07T19:40:50.571Z,15.13
2022-10-07T19:45:51.783Z,13.30
2022-10-07T19:50:57.067Z,15.90
2022-10-07T19:55:55.379Z,16.40
2022-10-07T20:01:06.343Z,14.15
2022-10-07T20:06:08.770Z,11.95
2022-10-07T20:11:12.953Z,10.85
2022-10-07T20:16:16.811Z,15.13
2022-10-07T20:26:30.462Z,11.38
2022-10-07T20:31:31.373Z,10.33
2022-10-07T20:36:32.907Z,11.52
2022-10-07T20:41:50.501Z,10.60
2022-10-07T20:46:52.168Z,10.15
2022-10-07T20:52:03.682Z,11.40
2022-10-07T20:57:05.489Z,12.23
2022-10-07T21:02:09.473Z,11.50
2022-10-07T21:07:12.569Z,10.85
2022-10-07T21:12:15.837Z,10.95
2022-10-07T21:17:20.330Z,12.60
2022-10-07T21:22:20.785Z,12.60
2022-10-07T21:27:24.336Z,12.65
2022-10-07T21:32:24.705Z,12.25
2022-10-07T21:37:26.329Z,13.98
2022-10-07T21:42:27.478Z,12.77
2022-10-07T21:47:26.091Z,13.40
2022-10-07T21:52:28.282Z,12.68
2022-10-07T21:57:29.272Z,13.50
2022-10-07T22:02:47.752Z,13.07
2022-10-07T22:08:18.162Z,12.68
2022-10-07T22:13:22.835Z,12.18
2022-10-07T22:23:36.700Z,13.77
2022-10-07T22:28:38.971Z,13.88
2022-10-07T22:34:08.077Z,13.70
2022-10-07T22:39:14.070Z,12.95
2022-10-07T22:44:19.130Z,13.88
2022-10-07T22:49:22.302Z,13.88
2022-10-07T23:12:36.088Z,12.90
2022-10-07T23:17:42.118Z,12.13
2022-10-07T23:22:54.032Z,12.15
2022-10-07T23:27:56.341Z,13.68
2022-10-07T23:32:58.318Z,13.00
2022-10-07T23:38:00.885Z,12.98
2022-10-07T23:42:59.667Z,12.48
2022-10-07T23:48:05.024Z,12.63
2022-10-07T23:53:08.244Z,12.32
2022-10-07T23:58:12.438Z,12.30
